• Join FlightAware (Why Join?)
  • Login
  • US Flag 
11:26AM EDT


 

Airport Tracker/Info


-or-


 

Live Flight TrackerFlight Track Log ✈ RPA3228 ✈ 04-Nov-2013 ✈ KBNA - KDCA

Flight Track Log - Related Links

Times and Time Zones

All times are in EST time to prevent confusion due to time zone crossing. See the RPA3228 flight status page for this flight to view local times or setup timezone preferences in your user account.

Time Position Orientation Groundspeed Altitude Reporting Facility
EST Latitude Longitude Course Direction KTS MPH feet Rate Location/Type
07:05AM 36.1333 -86.6833 68° East 159 183 1,300  Level Nashville TRACON
07:06AM 36.1667 -86.7333 310° West 225 259 3,600 2,760 Climbing Nashville TRACON
07:07AM 36.2387 -86.3351 80° East  Level Estimated
07:07AM 36.2167 -86.6667 47° Northeast 293 337 7,500  Level Nashville TRACON
07:08AM 36.2766 -86.2205 64° Northeast  Level Estimated
07:08AM 36.2056 -86.5244 95° East 327 376 11,500  Level Memphis Center
07:09AM 36.3143 -86.1058 68° East  Level Estimated
07:09AM 36.2044 -86.4192 91° East 337 388 13,900  Level Memphis Center
07:10AM 36.3520 -85.9910 68° East  Level Estimated
07:10AM 36.2022 -86.2881 91° East 358 412 16,700  Level Memphis Center
07:11AM 36.1997 -86.1519 91° East 382 440 19,000 2,160 Climbing Memphis Center
07:13AM 36.2831 -85.8847 69° East 436 502 23,300 1,920 Climbing Indianapolis Center
07:14AM 36.3458 -85.7458 61° Northeast 458 527 24,900 1,680 Climbing Indianapolis Center
07:15AM 36.4139 -85.6050 59° Northeast 469 540 26,800 1,860 Climbing Indianapolis Center
07:16AM 36.4964 -85.4294 60° Northeast 484 557 28,800 1,560 Climbing Indianapolis Center
07:17AM 36.5667 -85.2803 60° Northeast 492 566 30,000 1,500 Climbing Indianapolis Center
07:18AM 36.6325 -85.1258 62° Northeast 500 575 31,900 1,440 Climbing Indianapolis Center
07:19AM 36.6806 -84.9639 70° East 495 570 33,000 540 Climbing Indianapolis Center
07:20AM 36.7297 -84.8033 69° East 493 567 33,000  Level Indianapolis Center
07:21AM 36.7781 -84.6428 69° East 492 566 33,000  Level Indianapolis Center
07:22AM 36.8256 -84.4906 69° East 489 563 33,000  Level Indianapolis Center
07:23AM 36.8731 -84.3300 70° East 492 566 33,000  Level Indianapolis Center
07:24AM 36.9219 -84.1700 69° East 493 567 33,000  Level Indianapolis Center
07:25AM 36.9675 -84.0106 70° East 488 562 33,000  Level Indianapolis Center
07:26AM 37.0164 -83.8503 69° East 491 565 33,000  Level Indianapolis Center
07:27AM 37.0719 -83.6625 70° East 493 567 33,000  Level Indianapolis Center
07:28AM 37.1192 -83.5011 70° East 495 570 33,000  Level Indianapolis Center
07:29AM 37.1669 -83.3392 70° East 498 573 33,000  Level Indianapolis Center
07:30AM 37.2139 -83.1764 70° East 495 570 33,000  Level Indianapolis Center
07:31AM 37.2592 -83.0169 70° East 484 557 33,000  Level Indianapolis Center
07:32AM 37.3039 -82.8586 70° East 480 552 33,000  Level Indianapolis Center
07:34AM 37.3492 -82.7014 70° East 477 549 33,000  Level Indianapolis Center
07:35AM 37.3936 -82.5439 70° East 475 547 33,000  Level Indianapolis Center
07:36AM 37.4378 -82.3856 71° East 477 549 33,000  Level Indianapolis Center
07:37AM 37.4828 -82.2256 70° East 482 555 33,000  Level Indianapolis Center
07:38AM 37.5281 -82.0644 70° East 486 559 33,000  Level Indianapolis Center
07:39AM 37.5783 -81.8786 71° East 482 555 33,000  Level Indianapolis Center
07:40AM 37.6211 -81.7183 71° East 483 556 33,000  Level Indianapolis Center
07:41AM 37.6644 -81.5606 71° East 477 549 33,000  Level Indianapolis Center
07:42AM 37.7056 -81.4067 71° East 476 548 33,000  Level Indianapolis Center
07:43AM 37.7469 -81.2517 71° East 477 549 33,000  Level Indianapolis Center
07:44AM 37.7911 -81.0975 70° East 479 551 33,000  Level Indianapolis Center
07:45AM 37.8453 -80.9414 66° East 471 542 33,000  Level Indianapolis Center
07:46AM 37.8986 -80.7881 66° East 473 544 33,000  Level Indianapolis Center
07:47AM 37.9636 -80.6061 66° East 473 544 33,000  Level Indianapolis Center
07:47AM 37.9922 -80.5322 64° Northeast 467 537 33,000  Level Washington Center
07:48AM 38.0464 -80.3831 65° Northeast 467 537 33,000  Level Washington Center
07:49AM 38.0936 -80.2436 67° East 475 547 33,000  Level Washington Center
07:50AM 38.1494 -80.0911 65° Northeast 470 541 33,000  Level Washington Center
07:51AM 38.2028 -79.9411 66° East 470 541 33,000  Level Washington Center
07:52AM 38.2564 -79.7883 66° East 470 541 33,000  Level Washington Center
07:53AM 38.3117 -79.6353 65° Northeast 475 547 33,000  Level Washington Center
07:54AM 38.3647 -79.4792 67° East 475 547 33,000 -1,200 Level Washington Center
07:55AM 38.4203 -79.3072 68° East 475 547 30,600 -2,460 Descending Washington Center
07:56AM 38.4542 -79.1472 75° East 464 534 28,100 -1,800 Descending Washington Center
07:57AM 38.4819 -78.9867 77° East 457 526 27,000 -1,200 Descending Washington Center
07:58AM 38.5050 -78.8258 80° East 457 526 25,700 -1,860 Descending Washington Center
07:59AM 38.5281 -78.6703 79° East 457 526 23,400 -1,920 Descending Washington Center
08:00AM 38.5525 -78.5225 78° East 444 511 22,000 -1,200 Descending Washington Center
08:01AM 38.5747 -78.3800 79° East 422 486 21,000 -1,380 Descending Washington Center
08:02AM 38.6111 -78.2433 71° East 411 473 19,300 -1,620 Descending Washington Center
08:03AM 38.6594 -78.1228 63° Northeast 392 451 17,900 -1,620 Descending Washington Center
08:04AM 38.7058 -78.0047 63° Northeast 375 432 16,100 -1,860 Descending Washington Center
08:05AM 38.7497 -77.8889 64° Northeast 369 425 14,200 -1,860 Descending Washington Center
08:06AM 38.7892 -77.7783 65° Northeast 351 404 12,400 -1,800 Descending Washington Center
08:07AM 38.8286 -77.6808 63° Northeast 320 368 10,700 -1,440 Descending Washington Center
08:08AM 38.8614 -77.5964 63° Northeast 291 335 9,600 -1,080 Descending Washington Center
08:09AM 38.8919 -77.5011 68° East 286 329 8,600 -1,260 Descending Washington Center
08:11AM 38.8833 -77.3667 95° East 284 327 6,800 -1,140 Descending Potomac TRACON
08:12AM 38.8333 -77.2833 128° Southeast 275 316 6,000 -840 Descending Potomac TRACON
08:13AM 38.8000 -77.2000 117° Southeast 272 313 5,200 -1,140 Descending Potomac TRACON
08:14AM 38.7667 -77.1333 123° Southeast 242 278 3,800 -1,500 Descending Potomac TRACON
08:15AM 38.7500 -77.0500 104° East 173 199 2,300 -1,200 Descending Potomac TRACON
08:16AM 38.7833 -77.0333 21° North 138 159 1,600 -840 Descending Potomac TRACON
08:17AM 38.8167 -77.0333 360° North 116 133 700 -900 Descending Potomac TRACON